sensor_id;sensor_type;location;lat;lon;timestamp;temperature;humidity
33580;DHT22;19909;43.644;-79.438;2023-04-03T00:01:23;21.20;30.10
33580;DHT22;19909;43.644;-79.438;2023-04-03T00:03:49;21.10;30.00
33580;DHT22;19909;43.644;-79.438;2023-04-03T00:06:15;21.20;30.30
33580;DHT22;19909;43.644;-79.438;2023-04-03T00:08:42;21.20;30.50
33580;DHT22;19909;43.644;-79.438;2023-04-03T00:11:09;21.20;30.60
33580;DHT22;19909;43.644;-79.438;2023-04-03T00:13:36;21.10;30.70
33580;DHT22;19909;43.644;-79.438;2023-04-03T00:16:04;21.10;30.70
33580;DHT22;19909;43.644;-79.438;2023-04-03T00:18:31;21.10;30.80
33580;DHT22;19909;43.644;-79.438;2023-04-03T00:20:57;21.10;30.90
33580;DHT22;19909;43.644;-79.438;2023-04-03T00:23:23;21.10;30.90
33580;DHT22;19909;43.644;-79.438;2023-04-03T00:25:51;21.10;31.00
33580;DHT22;19909;43.644;-79.438;2023-04-03T00:28:17;21.00;31.00
33580;DHT22;19909;43.644;-79.438;2023-04-03T00:30:44;21.00;30.50
33580;DHT22;19909;43.644;-79.438;2023-04-03T00:33:13;21.00;30.20
33580;DHT22;19909;43.644;-79.438;2023-04-03T00:35:40;21.00;30.40
33580;DHT22;19909;43.644;-79.438;2023-04-03T00:38:06;21.00;30.80
33580;DHT22;19909;43.644;-79.438;2023-04-03T00:40:36;21.00;30.80
33580;DHT22;19909;43.644;-79.438;2023-04-03T00:43:14;21.00;30.90
33580;DHT22;19909;43.644;-79.438;2023-04-03T00:45:43;21.00;31.00
33580;DHT22;19909;43.644;-79.438;2023-04-03T00:48:17;20.90;31.00
33580;DHT22;19909;43.644;-79.438;2023-04-03T00:50:44;20.90;31.10
33580;DHT22;19909;43.644;-79.438;2023-04-03T00:53:14;20.90;31.10
33580;DHT22;19909;43.644;-79.438;2023-04-03T00:55:43;20.90;31.20
33580;DHT22;19909;43.644;-79.438;2023-04-03T00:58:10;20.90;31.20
33580;DHT22;19909;43.644;-79.438;2023-04-03T01:00:40;20.90;30.80
33580;DHT22;19909;43.644;-79.438;2023-04-03T01:03:08;20.90;30.50
33580;DHT22;19909;43.644;-79.438;2023-04-03T01:05:34;20.90;30.70
33580;DHT22;19909;43.644;-79.438;2023-04-03T01:08:01;20.90;30.90
33580;DHT22;19909;43.644;-79.438;2023-04-03T01:10:28;20.80;31.00
33580;DHT22;19909;43.644;-79.438;2023-04-03T01:12:54;20.90;31.10
33580;DHT22;19909;43.644;-79.438;2023-04-03T01:15:26;20.80;31.20
33580;DHT22;19909;43.644;-79.438;2023-04-03T01:17:57;20.80;31.20
33580;DHT22;19909;43.644;-79.438;2023-04-03T01:25:51;20.80;31.40
33580;DHT22;19909;43.644;-79.438;2023-04-03T01:28:21;20.80;31.40
33580;DHT22;19909;43.644;-79.438;2023-04-03T01:33:38;20.70;30.70
33580;DHT22;19909;43.644;-79.438;2023-04-03T01:36:05;20.70;30.90
33580;DHT22;19909;43.644;-79.438;2023-04-03T01:38:32;20.70;31.10
33580;DHT22;19909;43.644;-79.438;2023-04-03T01:40:58;20.70;31.30
33580;DHT22;19909;43.644;-79.438;2023-04-03T01:43:24;20.70;31.30
33580;DHT22;19909;43.644;-79.438;2023-04-03T01:45:52;20.70;31.40
33580;DHT22;19909;43.644;-79.438;2023-04-03T01:48:21;20.70;31.40
33580;DHT22;19909;43.644;-79.438;2023-04-03T01:50:48;20.60;31.40
33580;DHT22;19909;43.644;-79.438;2023-04-03T01:53:15;20.60;31.50
33580;DHT22;19909;43.644;-79.438;2023-04-03T01:55:41;20.60;31.60
33580;DHT22;19909;43.644;-79.438;2023-04-03T01:58:08;20.60;31.60
33580;DHT22;19909;43.644;-79.438;2023-04-03T02:00:34;20.60;31.30
33580;DHT22;19909;43.644;-79.438;2023-04-03T02:03:00;20.60;30.90
33580;DHT22;19909;43.644;-79.438;2023-04-03T02:05:27;20.60;31.00
33580;DHT22;19909;43.644;-79.438;2023-04-03T02:07:54;20.60;31.40
33580;DHT22;19909;43.644;-79.438;2023-04-03T02:10:20;20.60;31.40
33580;DHT22;19909;43.644;-79.438;2023-04-03T02:12:46;20.60;31.50
33580;DHT22;19909;43.644;-79.438;2023-04-03T02:15:13;20.50;31.40
33580;DHT22;19909;43.644;-79.438;2023-04-03T02:17:39;20.50;31.60
33580;DHT22;19909;43.644;-79.438;2023-04-03T02:20:06;20.50;31.60
33580;DHT22;19909;43.644;-79.438;2023-04-03T02:22:33;20.50;31.70
33580;DHT22;19909;43.644;-79.438;2023-04-03T02:24:59;20.50;31.60
33580;DHT22;19909;43.644;-79.438;2023-04-03T02:27:26;20.50;31.70
33580;DHT22;19909;43.644;-79.438;2023-04-03T02:29:53;20.50;31.60
33580;DHT22;19909;43.644;-79.438;2023-04-03T02:32:19;20.50;31.10
33580;DHT22;19909;43.644;-79.438;2023-04-03T02:34:45;20.50;31.10
33580;DHT22;19909;43.644;-79.438;2023-04-03T02:37:11;20.40;31.40
33580;DHT22;19909;43.644;-79.438;2023-04-03T02:39:38;20.40;31.50
33580;DHT22;19909;43.644;-79.438;2023-04-03T02:42:04;20.50;31.70
33580;DHT22;19909;43.644;-79.438;2023-04-03T02:44:30;20.40;31.70
33580;DHT22;19909;43.644;-79.438;2023-04-03T02:46:57;20.40;31.70
33580;DHT22;19909;43.644;-79.438;2023-04-03T02:49:23;20.40;31.10
33580;DHT22;19909;43.644;-79.438;2023-04-03T02:51:49;20.40;31.00
33580;DHT22;19909;43.644;-79.438;2023-04-03T02:54:17;20.50;30.90
33580;DHT22;19909;43.644;-79.438;2023-04-03T02:56:43;20.60;30.70
33580;DHT22;19909;43.644;-79.438;2023-04-03T02:59:09;20.60;30.60
33580;DHT22;19909;43.644;-79.438;2023-04-03T03:01:35;20.70;30.70
33580;DHT22;19909;43.644;-79.438;2023-04-03T03:04:03;20.80;30.60
33580;DHT22;19909;43.644;-79.438;2023-04-03T03:06:30;20.90;30.60
33580;DHT22;19909;43.644;-79.438;2023-04-03T03:08:56;21.00;30.60
33580;DHT22;19909;43.644;-79.438;2023-04-03T03:11:22;21.10;30.60
33580;DHT22;19909;43.644;-79.438;2023-04-03T03:13:48;21.20;30.70
33580;DHT22;19909;43.644;-79.438;2023-04-03T03:16:15;21.20;30.70
33580;DHT22;19909;43.644;-79.438;2023-04-03T03:18:41;21.30;30.70
33580;DHT22;19909;43.644;-79.438;2023-04-03T03:21:08;21.40;30.70
33580;DHT22;19909;43.644;-79.438;2023-04-03T03:23:35;21.50;30.70
33580;DHT22;19909;43.644;-79.438;2023-04-03T03:26:07;21.60;30.70
33580;DHT22;19909;43.644;-79.438;2023-04-03T03:28:35;21.70;30.80
33580;DHT22;19909;43.644;-79.438;2023-04-03T03:31:02;21.80;30.70
33580;DHT22;19909;43.644;-79.438;2023-04-03T03:33:29;21.80;30.70
33580;DHT22;19909;43.644;-79.438;2023-04-03T03:35:55;21.90;30.70
33580;DHT22;19909;43.644;-79.438;2023-04-03T03:38:22;21.90;30.60
33580;DHT22;19909;43.644;-79.438;2023-04-03T03:40:50;22.00;30.60
33580;DHT22;19909;43.644;-79.438;2023-04-03T03:43:17;22.10;30.60
33580;DHT22;19909;43.644;-79.438;2023-04-03T03:45:44;22.20;30.60
33580;DHT22;19909;43.644;-79.438;2023-04-03T03:48:11;22.30;30.60
33580;DHT22;19909;43.644;-79.438;2023-04-03T03:50:38;22.30;30.60
33580;DHT22;19909;43.644;-79.438;2023-04-03T03:53:04;22.40;30.50
33580;DHT22;19909;43.644;-79.438;2023-04-03T03:55:30;22.40;30.50
33580;DHT22;19909;43.644;-79.438;2023-04-03T03:57:57;22.50;30.40
33580;DHT22;19909;43.644;-79.438;2023-04-03T04:00:23;22.60;30.40
33580;DHT22;19909;43.644;-79.438;2023-04-03T04:02:49;22.70;30.40
33580;DHT22;19909;43.644;-79.438;2023-04-03T04:05:15;22.70;30.40
33580;DHT22;19909;43.644;-79.438;2023-04-03T04:07:41;22.80;30.30
33580;DHT22;19909;43.644;-79.438;2023-04-03T04:10:08;22.80;30.30
33580;DHT22;19909;43.644;-79.438;2023-04-03T04:12:34;22.90;30.30
33580;DHT22;19909;43.644;-79.438;2023-04-03T04:15:02;23.00;30.30
33580;DHT22;19909;43.644;-79.438;2023-04-03T04:17:28;23.00;30.20
33580;DHT22;19909;43.644;-79.438;2023-04-03T04:19:55;23.00;30.10
33580;DHT22;19909;43.644;-79.438;2023-04-03T04:22:21;22.90;30.10
33580;DHT22;19909;43.644;-79.438;2023-04-03T04:24:47;22.90;30.10
33580;DHT22;19909;43.644;-79.438;2023-04-03T04:27:14;22.90;30.20
33580;DHT22;19909;43.644;-79.438;2023-04-03T04:29:41;22.90;30.10
33580;DHT22;19909;43.644;-79.438;2023-04-03T04:32:07;22.90;30.00
33580;DHT22;19909;43.644;-79.438;2023-04-03T04:34:34;23.00;30.00
33580;DHT22;19909;43.644;-79.438;2023-04-03T04:37:01;23.00;30.20
33580;DHT22;19909;43.644;-79.438;2023-04-03T04:39:27;23.10;30.00
33580;DHT22;19909;43.644;-79.438;2023-04-03T04:41:53;23.10;30.00
33580;DHT22;19909;43.644;-79.438;2023-04-03T04:44:19;23.20;30.00
33580;DHT22;19909;43.644;-79.438;2023-04-03T04:46:46;23.20;30.00
33580;DHT22;19909;43.644;-79.438;2023-04-03T04:49:12;23.20;29.90
33580;DHT22;19909;43.644;-79.438;2023-04-03T04:51:39;23.20;29.90
33580;DHT22;19909;43.644;-79.438;2023-04-03T04:54:05;23.20;29.90
33580;DHT22;19909;43.644;-79.438;2023-04-03T04:56:31;23.20;29.90
33580;DHT22;19909;43.644;-79.438;2023-04-03T04:58:57;23.10;30.00
33580;DHT22;19909;43.644;-79.438;2023-04-03T05:01:23;23.20;29.90
33580;DHT22;19909;43.644;-79.438;2023-04-03T05:03:50;23.20;29.90
33580;DHT22;19909;43.644;-79.438;2023-04-03T05:06:16;23.20;29.80
33580;DHT22;19909;43.644;-79.438;2023-04-03T05:08:42;23.30;29.80
33580;DHT22;19909;43.644;-79.438;2023-04-03T05:11:09;23.40;29.80
33580;DHT22;19909;43.644;-79.438;2023-04-03T05:13:35;23.40;29.80
33580;DHT22;19909;43.644;-79.438;2023-04-03T05:16:01;23.40;29.80
33580;DHT22;19909;43.644;-79.438;2023-04-03T05:18:27;23.40;29.80
33580;DHT22;19909;43.644;-79.438;2023-04-03T05:20:53;23.40;30.10
33580;DHT22;19909;43.644;-79.438;2023-04-03T05:23:20;23.40;29.80
33580;DHT22;19909;43.644;-79.438;2023-04-03T05:25:47;23.40;29.70
33580;DHT22;19909;43.644;-79.438;2023-04-03T05:28:14;23.40;29.90
33580;DHT22;19909;43.644;-79.438;2023-04-03T05:30:41;23.40;29.80
33580;DHT22;19909;43.644;-79.438;2023-04-03T05:33:07;23.40;29.70
33580;DHT22;19909;43.644;-79.438;2023-04-03T05:35:36;23.40;29.70
33580;DHT22;19909;43.644;-79.438;2023-04-03T05:38:05;23.40;29.70
33580;DHT22;19909;43.644;-79.438;2023-04-03T05:40:31;23.50;29.60
33580;DHT22;19909;43.644;-79.438;2023-04-03T05:42:57;23.50;29.60
33580;DHT22;19909;43.644;-79.438;2023-04-03T05:45:24;23.60;29.60
33580;DHT22;19909;43.644;-79.438;2023-04-03T05:47:50;23.60;29.60
33580;DHT22;19909;43.644;-79.438;2023-04-03T05:50:16;23.50;29.60
33580;DHT22;19909;43.644;-79.438;2023-04-03T05:52:45;23.50;29.60
33580;DHT22;19909;43.644;-79.438;2023-04-03T05:55:12;23.50;29.70
33580;DHT22;19909;43.644;-79.438;2023-04-03T05:57:38;23.40;29.60
33580;DHT22;19909;43.644;-79.438;2023-04-03T06:00:06;23.50;29.80
33580;DHT22;19909;43.644;-79.438;2023-04-03T06:02:36;23.50;29.70
33580;DHT22;19909;43.644;-79.438;2023-04-03T06:05:02;23.50;29.50
33580;DHT22;19909;43.644;-79.438;2023-04-03T06:07:28;23.50;29.60
33580;DHT22;19909;43.644;-79.438;2023-04-03T06:09:56;23.50;29.50
33580;DHT22;19909;43.644;-79.438;2023-04-03T06:12:23;23.60;29.90
33580;DHT22;19909;43.644;-79.438;2023-04-03T06:14:50;23.60;29.50
33580;DHT22;19909;43.644;-79.438;2023-04-03T06:17:17;23.60;29.50
33580;DHT22;19909;43.644;-79.438;2023-04-03T06:19:44;23.60;29.50
33580;DHT22;19909;43.644;-79.438;2023-04-03T06:22:10;23.50;29.50
33580;DHT22;19909;43.644;-79.438;2023-04-03T06:24:37;23.50;29.50
33580;DHT22;19909;43.644;-79.438;2023-04-03T06:27:04;23.50;29.60
33580;DHT22;19909;43.644;-79.438;2023-04-03T06:29:30;23.50;29.50
33580;DHT22;19909;43.644;-79.438;2023-04-03T06:31:57;23.60;29.40
33580;DHT22;19909;43.644;-79.438;2023-04-03T06:34:23;23.60;29.50
33580;DHT22;19909;43.644;-79.438;2023-04-03T06:36:50;23.60;29.40
33580;DHT22;19909;43.644;-79.438;2023-04-03T06:39:19;23.70;29.40
33580;DHT22;19909;43.644;-79.438;2023-04-03T06:41:49;23.70;29.40
33580;DHT22;19909;43.644;-79.438;2023-04-03T06:44:15;23.70;29.40
33580;DHT22;19909;43.644;-79.438;2023-04-03T06:46:43;23.70;29.40
33580;DHT22;19909;43.644;-79.438;2023-04-03T06:49:09;23.60;29.50
33580;DHT22;19909;43.644;-79.438;2023-04-03T06:51:37;23.60;29.50
33580;DHT22;19909;43.644;-79.438;2023-04-03T06:54:05;23.60;29.50
33580;DHT22;19909;43.644;-79.438;2023-04-03T06:56:32;23.60;29.40
33580;DHT22;19909;43.644;-79.438;2023-04-03T06:58:58;23.60;29.30
33580;DHT22;19909;43.644;-79.438;2023-04-03T07:01:27;23.70;29.40
33580;DHT22;19909;43.644;-79.438;2023-04-03T07:03:54;23.70;29.40
33580;DHT22;19909;43.644;-79.438;2023-04-03T07:06:20;23.70;29.30
33580;DHT22;19909;43.644;-79.438;2023-04-03T07:08:47;23.70;29.30
33580;DHT22;19909;43.644;-79.438;2023-04-03T07:11:16;23.70;29.30
33580;DHT22;19909;43.644;-79.438;2023-04-03T07:13:42;23.70;29.30
33580;DHT22;19909;43.644;-79.438;2023-04-03T07:16:09;23.60;29.40
33580;DHT22;19909;43.644;-79.438;2023-04-03T07:18:35;23.60;29.30
33580;DHT22;19909;43.644;-79.438;2023-04-03T07:21:02;23.60;29.50
33580;DHT22;19909;43.644;-79.438;2023-04-03T07:23:29;23.60;29.40
33580;DHT22;19909;43.644;-79.438;2023-04-03T07:25:55;23.60;29.30
33580;DHT22;19909;43.644;-79.438;2023-04-03T07:28:22;23.70;29.30
33580;DHT22;19909;43.644;-79.438;2023-04-03T07:30:53;23.70;29.30
33580;DHT22;19909;43.644;-79.438;2023-04-03T07:33:22;23.70;29.30
33580;DHT22;19909;43.644;-79.438;2023-04-03T07:35:49;23.80;29.70
33580;DHT22;19909;43.644;-79.438;2023-04-03T07:38:15;23.80;29.30
33580;DHT22;19909;43.644;-79.438;2023-04-03T07:40:46;23.80;29.30
33580;DHT22;19909;43.644;-79.438;2023-04-03T07:43:13;23.70;29.30
33580;DHT22;19909;43.644;-79.438;2023-04-03T07:45:40;23.70;29.30
33580;DHT22;19909;43.644;-79.438;2023-04-03T07:48:06;23.70;29.30
33580;DHT22;19909;43.644;-79.438;2023-04-03T07:50:32;23.70;29.40
33580;DHT22;19909;43.644;-79.438;2023-04-03T07:52:59;23.60;29.30
33580;DHT22;19909;43.644;-79.438;2023-04-03T07:55:25;23.70;29.30
33580;DHT22;19909;43.644;-79.438;2023-04-03T07:57:51;23.70;29.30
33580;DHT22;19909;43.644;-79.438;2023-04-03T08:00:18;23.80;29.30
33580;DHT22;19909;43.644;-79.438;2023-04-03T08:02:45;23.80;29.20
33580;DHT22;19909;43.644;-79.438;2023-04-03T08:05:17;23.80;29.20
33580;DHT22;19909;43.644;-79.438;2023-04-03T08:07:44;23.80;29.20
33580;DHT22;19909;43.644;-79.438;2023-04-03T08:10:10;23.70;29.30
33580;DHT22;19909;43.644;-79.438;2023-04-03T08:12:36;23.70;29.30
33580;DHT22;19909;43.644;-79.438;2023-04-03T08:15:04;23.70;29.30
33580;DHT22;19909;43.644;-79.438;2023-04-03T08:17:30;23.70;29.40
33580;DHT22;19909;43.644;-79.438;2023-04-03T08:19:56;23.70;29.30
33580;DHT22;19909;43.644;-79.438;2023-04-03T08:22:22;23.70;29.40
33580;DHT22;19909;43.644;-79.438;2023-04-03T08:24:49;23.70;29.20
33580;DHT22;19909;43.644;-79.438;2023-04-03T08:27:15;23.70;29.30
33580;DHT22;19909;43.644;-79.438;2023-04-03T08:29:42;23.80;29.20
33580;DHT22;19909;43.644;-79.438;2023-04-03T08:32:08;23.80;29.20
33580;DHT22;19909;43.644;-79.438;2023-04-03T08:34:34;23.80;29.20
33580;DHT22;19909;43.644;-79.438;2023-04-03T08:37:03;23.80;29.20
33580;DHT22;19909;43.644;-79.438;2023-04-03T08:39:29;23.80;29.20
33580;DHT22;19909;43.644;-79.438;2023-04-03T08:41:58;23.80;29.30
33580;DHT22;19909;43.644;-79.438;2023-04-03T08:49:55;23.70;29.30
33580;DHT22;19909;43.644;-79.438;2023-04-03T08:52:36;23.70;29.20
33580;DHT22;19909;43.644;-79.438;2023-04-03T08:55:10;23.80;29.20
33580;DHT22;19909;43.644;-79.438;2023-04-03T08:57:40;23.80;29.20
33580;DHT22;19909;43.644;-79.438;2023-04-03T09:00:20;23.80;29.60
33580;DHT22;19909;43.644;-79.438;2023-04-03T09:02:48;23.80;29.20
33580;DHT22;19909;43.644;-79.438;2023-04-03T09:05:23;23.80;29.10
33580;DHT22;19909;43.644;-79.438;2023-04-03T09:08:27;23.80;29.20
33580;DHT22;19909;43.644;-79.438;2023-04-03T09:22:25;23.80;29.20
33580;DHT22;19909;43.644;-79.438;2023-04-03T09:25:15;23.80;29.30
33580;DHT22;19909;43.644;-79.438;2023-04-03T09:27:42;23.80;29.20
33580;DHT22;19909;43.644;-79.438;2023-04-03T09:30:21;23.90;29.20
33580;DHT22;19909;43.644;-79.438;2023-04-03T09:32:50;23.90;29.20
33580;DHT22;19909;43.644;-79.438;2023-04-03T09:35:31;23.80;29.20
33580;DHT22;19909;43.644;-79.438;2023-04-03T09:40:42;23.70;29.30
33580;DHT22;19909;43.644;-79.438;2023-04-03T09:43:31;23.70;29.20
33580;DHT22;19909;43.644;-79.438;2023-04-03T09:46:25;23.70;29.40
33580;DHT22;19909;43.644;-79.438;2023-04-03T09:49:05;23.70;29.20
33580;DHT22;19909;43.644;-79.438;2023-04-03T09:51:33;23.70;29.20
33580;DHT22;19909;43.644;-79.438;2023-04-03T09:53:59;23.80;29.30
33580;DHT22;19909;43.644;-79.438;2023-04-03T09:56:29;23.80;29.20
33580;DHT22;19909;43.644;-79.438;2023-04-03T10:01:35;23.90;29.20
33580;DHT22;19909;43.644;-79.438;2023-04-03T10:06:40;23.80;29.30
33580;DHT22;19909;43.644;-79.438;2023-04-03T10:12:18;23.70;29.30
33580;DHT22;19909;43.644;-79.438;2023-04-03T10:14:58;23.80;29.40
33580;DHT22;19909;43.644;-79.438;2023-04-03T10:18:16;23.70;29.20
33580;DHT22;19909;43.644;-79.438;2023-04-03T10:31:16;23.90;29.30
33580;DHT22;19909;43.644;-79.438;2023-04-03T10:47:49;23.80;29.20
33580;DHT22;19909;43.644;-79.438;2023-04-03T10:50:27;23.80;29.20
33580;DHT22;19909;43.644;-79.438;2023-04-03T10:58:34;23.90;29.20
33580;DHT22;19909;43.644;-79.438;2023-04-03T11:01:08;23.80;29.30
33580;DHT22;19909;43.644;-79.438;2023-04-03T11:03:40;23.80;29.30
33580;DHT22;19909;43.644;-79.438;2023-04-03T11:06:15;23.80;29.30
33580;DHT22;19909;43.644;-79.438;2023-04-03T11:08:51;23.80;29.40
33580;DHT22;19909;43.644;-79.438;2023-04-03T11:11:29;23.80;29.40
33580;DHT22;19909;43.644;-79.438;2023-04-03T11:13:58;23.80;29.20
33580;DHT22;19909;43.644;-79.438;2023-04-03T11:16:30;23.80;29.30
33580;DHT22;19909;43.644;-79.438;2023-04-03T11:19:03;23.90;29.30
33580;DHT22;19909;43.644;-79.438;2023-04-03T11:22:05;24.00;29.20
33580;DHT22;19909;43.644;-79.438;2023-04-03T11:24:37;23.90;29.20
33580;DHT22;19909;43.644;-79.438;2023-04-03T11:27:05;23.90;29.20
33580;DHT22;19909;43.644;-79.438;2023-04-03T11:29:36;23.90;29.30
33580;DHT22;19909;43.644;-79.438;2023-04-03T11:34:56;23.80;29.40
33580;DHT22;19909;43.644;-79.438;2023-04-03T11:37:50;23.80;29.40
33580;DHT22;19909;43.644;-79.438;2023-04-03T11:40:33;23.80;29.30
33580;DHT22;19909;43.644;-79.438;2023-04-03T11:46:04;23.90;29.20
33580;DHT22;19909;43.644;-79.438;2023-04-03T11:53:42;23.80;29.30
33580;DHT22;19909;43.644;-79.438;2023-04-03T12:04:19;23.80;29.30
33580;DHT22;19909;43.644;-79.438;2023-04-03T12:12:29;24.00;29.30
33580;DHT22;19909;43.644;-79.438;2023-04-03T12:15:22;24.00;29.30
33580;DHT22;19909;43.644;-79.438;2023-04-03T12:17:50;24.00;29.40
33580;DHT22;19909;43.644;-79.438;2023-04-03T12:23:31;23.80;29.50
33580;DHT22;19909;43.644;-79.438;2023-04-03T12:26:10;23.80;29.50
33580;DHT22;19909;43.644;-79.438;2023-04-03T12:28:48;23.80;29.50
33580;DHT22;19909;43.644;-79.438;2023-04-03T12:31:17;23.80;29.50
33580;DHT22;19909;43.644;-79.438;2023-04-03T12:34:04;23.80;29.50
33580;DHT22;19909;43.644;-79.438;2023-04-03T12:44:36;23.80;29.50
33580;DHT22;19909;43.644;-79.438;2023-04-03T12:47:25;23.80;29.70
33580;DHT22;19909;43.644;-79.438;2023-04-03T12:49:55;23.70;29.60
33580;DHT22;19909;43.644;-79.438;2023-04-03T12:54:49;23.70;29.60
33580;DHT22;19909;43.644;-79.438;2023-04-03T12:57:35;23.70;29.50
33580;DHT22;19909;43.644;-79.438;2023-04-03T13:00:27;23.80;29.50
33580;DHT22;19909;43.644;-79.438;2023-04-03T13:02:54;23.80;29.50
33580;DHT22;19909;43.644;-79.438;2023-04-03T13:05:21;23.90;29.50
33580;DHT22;19909;43.644;-79.438;2023-04-03T13:08:10;23.90;29.60
33580;DHT22;19909;43.644;-79.438;2023-04-03T13:11:02;23.80;29.60
33580;DHT22;19909;43.644;-79.438;2023-04-03T13:13:29;23.80;29.70
33580;DHT22;19909;43.644;-79.438;2023-04-03T13:15:57;23.80;29.80
33580;DHT22;19909;43.644;-79.438;2023-04-03T13:18:34;23.70;29.80
33580;DHT22;19909;43.644;-79.438;2023-04-03T13:21:32;23.70;29.70
33580;DHT22;19909;43.644;-79.438;2023-04-03T13:24:02;23.70;29.80
33580;DHT22;19909;43.644;-79.438;2023-04-03T13:26:32;23.70;29.70
33580;DHT22;19909;43.644;-79.438;2023-04-03T13:29:06;23.70;29.70
33580;DHT22;19909;43.644;-79.438;2023-04-03T13:31:35;23.80;29.70
33580;DHT22;19909;43.644;-79.438;2023-04-03T13:36:43;23.80;29.70
33580;DHT22;19909;43.644;-79.438;2023-04-03T13:41:39;23.80;29.80
33580;DHT22;19909;43.644;-79.438;2023-04-03T13:46:55;23.70;29.80
33580;DHT22;19909;43.644;-79.438;2023-04-03T13:49:35;23.70;30.00
33580;DHT22;19909;43.644;-79.438;2023-04-03T13:52:42;23.70;30.00
33580;DHT22;19909;43.644;-79.438;2023-04-03T13:55:22;23.70;30.00
33580;DHT22;19909;43.644;-79.438;2023-04-03T14:00:48;23.80;29.90
33580;DHT22;19909;43.644;-79.438;2023-04-03T14:03:32;23.80;29.80
33580;DHT22;19909;43.644;-79.438;2023-04-03T14:06:00;23.80;29.80
33580;DHT22;19909;43.644;-79.438;2023-04-03T14:08:27;23.80;29.90
33580;DHT22;19909;43.644;-79.438;2023-04-03T14:10:54;23.70;29.90
33580;DHT22;19909;43.644;-79.438;2023-04-03T14:13:21;23.70;29.90
33580;DHT22;19909;43.644;-79.438;2023-04-03T14:15:47;23.70;30.00
33580;DHT22;19909;43.644;-79.438;2023-04-03T14:18:16;23.70;30.00
33580;DHT22;19909;43.644;-79.438;2023-04-03T14:20:43;23.70;30.00
33580;DHT22;19909;43.644;-79.438;2023-04-03T14:23:11;23.70;29.90
33580;DHT22;19909;43.644;-79.438;2023-04-03T14:25:38;23.80;29.90
33580;DHT22;19909;43.644;-79.438;2023-04-03T14:28:18;23.80;30.00
33580;DHT22;19909;43.644;-79.438;2023-04-03T14:30:47;23.80;30.00
33580;DHT22;19909;43.644;-79.438;2023-04-03T14:33:18;23.80;30.00
33580;DHT22;19909;43.644;-79.438;2023-04-03T14:35:45;23.70;30.00
33580;DHT22;19909;43.644;-79.438;2023-04-03T14:38:27;23.70;30.10
33580;DHT22;19909;43.644;-79.438;2023-04-03T14:40:55;23.70;30.10
33580;DHT22;19909;43.644;-79.438;2023-04-03T14:43:21;23.60;30.00
33580;DHT22;19909;43.644;-79.438;2023-04-03T14:45:49;23.60;30.80
33580;DHT22;19909;43.644;-79.438;2023-04-03T14:48:27;23.60;30.10
33580;DHT22;19909;43.644;-79.438;2023-04-03T14:50:54;23.60;30.10
33580;DHT22;19909;43.644;-79.438;2023-04-03T14:53:21;23.70;30.10
33580;DHT22;19909;43.644;-79.438;2023-04-03T14:55:52;23.70;30.00
33580;DHT22;19909;43.644;-79.438;2023-04-03T14:58:20;23.70;30.00
33580;DHT22;19909;43.644;-79.438;2023-04-03T15:00:47;23.70;30.10
33580;DHT22;19909;43.644;-79.438;2023-04-03T15:03:16;23.70;30.20
33580;DHT22;19909;43.644;-79.438;2023-04-03T15:05:45;23.70;30.30
33580;DHT22;19909;43.644;-79.438;2023-04-03T15:08:24;23.60;30.30
33580;DHT22;19909;43.644;-79.438;2023-04-03T15:10:52;23.60;30.30
33580;DHT22;19909;43.644;-79.438;2023-04-03T15:13:22;23.60;30.40
33580;DHT22;19909;43.644;-79.438;2023-04-03T15:15:50;23.60;30.40
33580;DHT22;19909;43.644;-79.438;2023-04-03T15:18:23;23.60;30.40
33580;DHT22;19909;43.644;-79.438;2023-04-03T15:20:53;23.70;30.30
33580;DHT22;19909;43.644;-79.438;2023-04-03T15:23:20;23.70;30.30
33580;DHT22;19909;43.644;-79.438;2023-04-03T15:25:47;23.70;30.30
33580;DHT22;19909;43.644;-79.438;2023-04-03T15:28:22;23.60;30.30
33580;DHT22;19909;43.644;-79.438;2023-04-03T15:30:49;23.60;30.40
33580;DHT22;19909;43.644;-79.438;2023-04-03T15:33:15;23.50;30.40
33580;DHT22;19909;43.644;-79.438;2023-04-03T15:35:42;23.50;30.40
33580;DHT22;19909;43.644;-79.438;2023-04-03T15:38:08;23.60;30.50
33580;DHT22;19909;43.644;-79.438;2023-04-03T15:40:35;23.60;30.60
33580;DHT22;19909;43.644;-79.438;2023-04-03T15:43:02;23.60;30.40
33580;DHT22;19909;43.644;-79.438;2023-04-03T15:45:29;23.70;30.40
33580;DHT22;19909;43.644;-79.438;2023-04-03T15:47:57;23.70;30.40
33580;DHT22;19909;43.644;-79.438;2023-04-03T15:50:23;23.70;30.50
33580;DHT22;19909;43.644;-79.438;2023-04-03T15:52:50;23.70;30.50
33580;DHT22;19909;43.644;-79.438;2023-04-03T15:55:27;23.60;30.60
33580;DHT22;19909;43.644;-79.438;2023-04-03T15:57:53;23.60;30.60
33580;DHT22;19909;43.644;-79.438;2023-04-03T16:00:21;23.50;30.70
33580;DHT22;19909;43.644;-79.438;2023-04-03T16:02:50;23.50;30.90
33580;DHT22;19909;43.644;-79.438;2023-04-03T16:05:18;23.50;31.10
33580;DHT22;19909;43.644;-79.438;2023-04-03T16:07:46;23.40;31.00
33580;DHT22;19909;43.644;-79.438;2023-04-03T16:10:14;23.40;30.70
33580;DHT22;19909;43.644;-79.438;2023-04-03T16:12:41;23.50;30.90
33580;DHT22;19909;43.644;-79.438;2023-04-03T16:15:08;23.50;30.80
33580;DHT22;19909;43.644;-79.438;2023-04-03T16:17:36;23.50;30.60
33580;DHT22;19909;43.644;-79.438;2023-04-03T16:20:04;23.50;30.60
33580;DHT22;19909;43.644;-79.438;2023-04-03T16:22:32;23.60;30.70
33580;DHT22;19909;43.644;-79.438;2023-04-03T16:24:59;23.60;30.80
33580;DHT22;19909;43.644;-79.438;2023-04-03T16:27:26;23.60;30.90
33580;DHT22;19909;43.644;-79.438;2023-04-03T16:29:57;23.50;30.90
33580;DHT22;19909;43.644;-79.438;2023-04-03T16:32:24;23.50;30.90
33580;DHT22;19909;43.644;-79.438;2023-04-03T16:34:52;23.50;30.90
33580;DHT22;19909;43.644;-79.438;2023-04-03T16:37:19;23.50;30.80
33580;DHT22;19909;43.644;-79.438;2023-04-03T16:39:45;23.50;30.80
33580;DHT22;19909;43.644;-79.438;2023-04-03T16:42:11;23.50;30.80
33580;DHT22;19909;43.644;-79.438;2023-04-03T16:44:38;23.60;30.80
33580;DHT22;19909;43.644;-79.438;2023-04-03T16:47:06;23.60;30.80
33580;DHT22;19909;43.644;-79.438;2023-04-03T16:49:33;23.60;30.80
33580;DHT22;19909;43.644;-79.438;2023-04-03T16:52:01;23.60;30.80
33580;DHT22;19909;43.644;-79.438;2023-04-03T16:54:28;23.60;30.90
33580;DHT22;19909;43.644;-79.438;2023-04-03T16:56:55;23.50;30.90
33580;DHT22;19909;43.644;-79.438;2023-04-03T16:59:21;23.50;31.00
33580;DHT22;19909;43.644;-79.438;2023-04-03T17:01:47;23.40;31.00
33580;DHT22;19909;43.644;-79.438;2023-04-03T17:04:14;23.50;31.10
33580;DHT22;19909;43.644;-79.438;2023-04-03T17:06:41;23.40;30.90
33580;DHT22;19909;43.644;-79.438;2023-04-03T17:09:08;23.40;31.10
33580;DHT22;19909;43.644;-79.438;2023-04-03T17:11:36;23.40;31.10